Aviation Digital Data Service (ADDS)

Output produced by METARs form (2326 UTC 15 February 2019)
found at http://www.aviationweather.gov/metar/data/
 
Forecast for: LBWN (VARNA , BG)
Text: TAF LBWN 152300Z 1600/1624 33010KT 9999 SCT040
Forecast period: 0000 to 1600 UTC 16 February 2019
Forecast type: FROM: standard forecast or significant change
Winds: from the NNW (330 degrees) at 12 MPH (10 knots; 5.1 m/s)
Visibility: 6 or more miles 10+ km)
Ceiling: at least 12,000 feet AGL
Clouds: scattered clouds at 4000 feet AGL
Weather: no significant weather forecast for this period
Text: TEMPO 1601/1606 4000 BR BKN012
Forecast period: 0100 to 0600 UTC 16 February 2019
Forecast type: TEMPORARY: The following changes expected for less than half the time period
Visibility: 2.49 miles (4.01 km)
Ceiling: 1200 feet AGL
Clouds: broken clouds at 1200 feet AGL
Weather: BR  (mist)
Text: BECMG 1616/1618 VRB04KT
Forecast period: 1600 UTC 16 February 2019 to 0000 UTC 17 February 2019
Forecast type: BECOMING: Conditions expected to become as follows by 1800 UTC 16 February 2019
Winds: variable direction winds at 5 MPH (4 knots; 2.1 m/s)
Visibility: 6 or more miles 10+ km)
Ceiling: at least 12,000 feet AGL
Clouds: scattered clouds at 4000 feet AGL
Weather: no significant weather forecast for this period